Time;durP1;ratioP1;P1;durP2;ratioP2;P2;SDS_P1;SDS_P2;PMS_P1;PMS_P2;Temp;Humidity;BMP_temperature;BMP_pressure;BME280_temperature;BME280_humidity;BME280_pressure;Samples;Min_cycle;Max_cycle;Signal;HPM_P1;HPM_P2
2023/06/18 00:02:06;;;;;;;10.00;9.00;;;18.80;57.70;;;17.94;63.44;95838.16;4972308;28;20065;-67
2023/06/18 00:04:32;;;;;;;10.38;9.25;;;18.80;57.70;;;17.93;64.14;95833.88;4973773;28;20027;-68
2023/06/18 00:06:57;;;;;;;11.93;8.82;;;18.80;57.80;;;17.91;63.99;95833.31;4973879;28;20037;-69
2023/06/18 00:09:23;;;;;;;13.43;9.20;;;18.80;57.80;;;17.88;63.88;95825.78;4958002;28;20053;-67
2023/06/18 00:11:49;;;;;;;13.55;9.82;;;18.70;57.80;;;17.86;64.06;95836.69;4973585;28;20035;-67
2023/06/18 00:14:16;;;;;;;15.27;9.80;;;18.70;57.50;;;17.82;63.24;95834.75;4956079;28;20041;-68
2023/06/18 00:16:41;;;;;;;17.08;9.57;;;18.60;57.60;;;17.79;63.12;95837.88;4969129;28;20031;-67
2023/06/18 00:19:07;;;;;;;13.02;9.70;;;18.60;57.40;;;17.73;62.04;95832.50;4955665;28;20042;-67
2023/06/18 00:21:33;;;;;;;11.15;9.07;;;18.60;56.00;;;17.74;62.21;95834.09;4990045;28;20031;-68
2023/06/18 00:23:58;;;;;;;12.93;10.07;;;18.60;56.50;;;17.72;62.80;95833.53;4988021;28;20038;-69
2023/06/18 00:26:25;;;;;;;12.85;9.77;;;18.60;57.30;;;17.68;63.26;95829.75;4957525;28;20042;-67
2023/06/18 00:28:51;;;;;;;13.68;9.68;;;18.60;57.80;;;17.67;62.90;95832.63;4973912;28;20080;-68
2023/06/18 00:31:17;;;;;;;13.43;10.40;;;18.60;57.40;;;17.63;63.55;95832.25;4990654;28;20119;-69
2023/06/18 00:33:44;;;;;;;10.63;9.20;;;18.60;57.20;;;17.64;62.60;95833.06;4973851;28;20034;-67
2023/06/18 00:36:10;;;;;;;13.05;9.05;;;18.60;56.90;;;17.57;63.10;95819.13;4954860;28;20042;-67
2023/06/18 00:38:36;;;;;;;12.73;9.60;;;18.60;56.90;;;17.61;62.97;95834.38;4973502;28;20085;-68
2023/06/18 00:41:02;;;;;;;13.88;9.68;;;18.50;56.50;;;17.58;62.87;95832.19;4976032;28;20046;-68
2023/06/18 00:43:28;;;;;;;11.98;9.23;;;18.50;57.20;;;17.54;63.11;95825.72;4971996;28;20065;-68
2023/06/18 00:45:59;;;;;;;13.50;9.73;;;18.50;56.90;;;17.54;63.09;95828.41;4973147;28;20030;-67
2023/06/18 00:48:28;;;;;;;10.77;9.23;;;18.40;56.70;;;17.49;62.93;95825.66;4956451;28;20081;-68
2023/06/18 00:50:53;;;;;;;11.55;9.35;;;18.40;57.00;;;17.46;63.02;95826.13;4969872;28;20073;-68
2023/06/18 00:53:20;;;;;;;13.73;9.93;;;18.30;56.80;;;17.45;62.17;95825.31;4972301;28;20105;-68
2023/06/18 00:55:47;;;;;;;14.05;9.35;;;18.30;56.80;;;17.41;62.81;95823.34;4973354;28;20564;-68
2023/06/18 00:58:13;;;;;;;11.05;9.95;;;18.30;56.60;;;17.39;62.42;95825.44;4972514;28;20042;-67
2023/06/18 01:00:40;;;;;;;10.80;9.10;;;18.20;57.30;;;17.36;63.21;95825.94;4989515;28;20047;-68
2023/06/18 01:03:20;;;;;;;10.82;9.50;;;18.20;57.40;;;17.32;64.63;95828.25;4987800;28;20030;-67
2023/06/18 01:05:57;;;;;;;11.68;9.90;;;18.10;58.00;;;17.27;63.67;95822.06;4955021;28;20062;-68
2023/06/18 01:08:23;;;;;;;13.00;8.95;;;18.10;58.20;;;17.22;64.07;95822.78;5005574;28;20026;-67
2023/06/18 01:11:00;;;;;;;11.32;9.15;;;18.10;58.10;;;17.19;64.63;95819.75;4992740;28;20036;-67
2023/06/18 01:13:26;;;;;;;11.65;9.23;;;18.10;58.10;;;17.15;63.80;95828.19;4992313;28;20088;-68
2023/06/18 01:15:51;;;;;;;14.32;9.10;;;18.00;58.30;;;17.09;63.94;95821.19;4992132;28;20025;-67
2023/06/18 01:18:17;;;;;;;12.00;9.00;;;18.00;58.20;;;17.06;64.14;95820.84;4990685;28;20113;-68
2023/06/18 01:20:44;;;;;;;14.80;9.52;;;17.90;58.00;;;17.02;63.76;95814.41;4992576;28;20089;-68
2023/06/18 01:23:23;;;;;;;10.45;9.35;;;17.90;58.20;;;16.99;64.93;95825.50;4975208;28;20041;-67
2023/06/18 01:25:49;;;;;;;13.55;9.50;;;17.90;58.20;;;16.93;64.39;95818.44;4975732;28;20022;-68
2023/06/18 01:28:15;;;;;;;10.77;9.23;;;17.80;58.10;;;16.91;64.26;95829.31;4976032;28;20452;-68
2023/06/18 01:30:41;;;;;;;11.43;9.18;;;17.80;57.70;;;16.89;64.04;95827.94;4975844;28;20045;-68
2023/06/18 01:33:12;;;;;;;11.88;9.02;;;17.70;58.00;;;16.82;64.03;95831.53;5008402;28;20042;-67
2023/06/18 01:35:38;;;;;;;9.95;8.90;;;17.60;58.40;;;16.75;64.62;95820.25;4992052;28;20022;-67
2023/06/18 01:38:33;;;;;;;12.13;8.95;;;17.60;58.50;;;16.73;66.02;95816.19;5004528;28;20041;-68
2023/06/18 01:41:14;;;;;;;12.77;9.15;;;17.60;58.90;;;16.65;66.42;95825.31;4972428;28;20459;-68
2023/06/18 01:43:58;;;;;;;12.90;9.95;;;17.50;59.10;;;16.63;66.73;95821.28;4976354;28;20037;-69
2023/06/18 01:46:23;;;;;;;12.18;9.68;;;17.50;59.40;;;16.58;65.23;95823.81;4960295;28;20026;-68
2023/06/18 01:48:57;;;;;;;13.82;10.05;;;17.50;59.70;;;16.53;67.35;95822.69;4981080;28;20023;-68
2023/06/18 01:51:24;;;;;;;14.85;10.48;;;17.40;60.10;;;16.46;66.74;95815.84;4973948;28;20027;-68
2023/06/18 01:53:51;;;;;;;15.40;10.35;;;17.40;60.40;;;16.44;67.04;95816.09;4940065;28;20030;-67
2023/06/18 01:56:17;;;;;;;14.60;10.65;;;17.30;60.60;;;16.40;67.20;95822.91;4955212;28;20082;-68
2023/06/18 01:58:43;;;;;;;14.18;11.13;;;17.30;60.90;;;16.31;67.78;95816.34;4940484;28;20038;-69
2023/06/18 02:01:12;;;;;;;16.33;11.57;;;17.20;61.00;;;16.27;67.86;95817.81;4974916;28;20089;-68
2023/06/18 02:03:39;;;;;;;11.18;9.88;;;17.10;61.30;;;16.23;68.04;95816.66;4975522;28;20022;-68
2023/06/18 02:06:05;;;;;;;12.80;9.85;;;17.10;61.70;;;16.19;68.77;95821.63;4984750;28;20066;-67
2023/06/18 02:08:31;;;;;;;14.98;10.10;;;17.10;61.70;;;16.18;68.76;95819.22;4975393;28;20030;-68
2023/06/18 02:11:03;;;;;;;13.85;10.60;;;17.00;61.50;;;16.12;68.98;95820.16;4958883;28;20053;-67
2023/06/18 02:13:28;;;;;;;12.18;9.15;;;17.10;61.70;;;16.09;68.26;95821.41;4975060;28;20030;-68
2023/06/18 02:15:54;;;;;;;14.38;10.68;;;17.00;61.60;;;16.07;69.25;95822.66;4992992;28;20604;-69
2023/06/18 02:18:20;;;;;;;14.75;10.48;;;17.00;61.60;;;16.06;68.28;95826.34;4942998;28;20050;-67
2023/06/18 02:20:46;;;;;;;12.93;9.80;;;16.90;61.30;;;16.01;68.63;95831.53;4959893;28;20116;-68
2023/06/18 02:23:12;;;;;;;14.80;10.52;;;16.90;61.30;;;15.97;68.47;95830.38;4976116;28;20655;-69
2023/06/18 02:25:37;;;;;;;13.07;10.43;;;16.90;61.30;;;15.91;69.44;95822.31;4972540;28;20416;-68
2023/06/18 02:28:04;;;;;;;13.50;10.60;;;16.70;61.90;;;15.91;68.92;95824.97;4974242;28;20036;-68
2023/06/18 02:30:30;;;;;;;12.73;10.38;;;16.80;62.10;;;15.88;69.83;95821.97;4968054;28;20092;-69
2023/06/18 02:32:58;;;;;;;11.73;10.52;;;16.80;62.40;;;15.83;69.43;95814.69;4991955;28;20026;-69
2023/06/18 02:35:24;;;;;;;14.48;10.32;;;16.70;62.50;;;15.83;69.87;95821.81;4958726;28;20038;-68
2023/06/18 02:37:50;;;;;;;11.60;10.32;;;16.70;62.60;;;15.79;70.59;95821.47;4959308;28;20093;-67
2023/06/18 02:40:16;;;;;;;13.23;10.50;;;16.70;62.50;;;15.75;70.24;95814.22;4990546;28;20113;-68
2023/06/18 02:42:47;;;;;;;11.38;9.98;;;16.60;62.70;;;15.71;70.44;95811.22;4959681;28;20509;-68
2023/06/18 02:45:16;;;;;;;13.90;10.00;;;16.60;62.90;;;15.68;70.14;95814.31;4976545;28;20556;-68
2023/06/18 02:47:43;;;;;;;13.75;10.55;;;16.60;62.70;;;15.65;70.68;95816.63;4973622;28;20397;-68
2023/06/18 02:50:09;;;;;;;12.75;9.98;;;16.60;63.10;;;15.60;70.84;95807.47;4994325;28;20038;-68
2023/06/18 02:52:35;;;;;;;12.35;9.88;;;16.50;63.10;;;15.58;70.86;95824.63;5009801;28;20033;-68
2023/06/18 02:55:01;;;;;;;13.02;10.60;;;16.50;63.00;;;15.54;71.25;95813.66;4991557;28;20410;-67
2023/06/18 02:57:26;;;;;;;11.68;9.52;;;16.50;62.90;;;15.53;70.10;95817.34;4994400;28;20520;-68
2023/06/18 02:59:52;;;;;;;11.40;10.00;;;16.50;62.60;;;15.51;70.31;95821.28;4991552;28;20026;-68
2023/06/18 03:02:18;;;;;;;14.73;10.77;;;16.40;62.60;;;15.48;71.25;95819.06;4994409;28;20045;-68
2023/06/18 03:04:44;;;;;;;10.93;9.60;;;16.40;62.60;;;15.47;70.53;95825.41;4977283;28;20041;-68
2023/06/18 03:07:09;;;;;;;11.90;9.68;;;16.40;62.20;;;15.44;70.43;95824.03;4962412;28;20121;-68
2023/06/18 03:09:35;;;;;;;12.00;9.60;;;16.40;62.50;;;15.40;70.72;95822.06;4996300;28;20058;-69
2023/06/18 03:12:01;;;;;;;12.15;9.73;;;16.30;62.80;;;15.36;70.77;95826.16;4974487;28;20190;-68
2023/06/18 03:14:27;;;;;;;13.07;9.98;;;16.30;62.90;;;15.36;71.94;95823.53;4989600;28;20109;-69
2023/06/18 03:16:52;;;;;;;12.80;10.05;;;16.30;63.10;;;15.30;72.09;95818.09;4992403;28;20120;-67
2023/06/18 03:19:18;;;;;;;12.32;9.90;;;16.20;63.40;;;15.28;71.70;95811.41;4973201;28;20096;-68
2023/06/18 03:21:44;;;;;;;11.98;9.30;;;16.30;63.50;;;15.26;72.45;95822.22;4990988;28;20449;-68
2023/06/18 03:24:11;;;;;;;10.65;9.30;;;16.20;63.50;;;15.25;72.90;95820.63;4974564;28;20577;-67
2023/06/18 03:26:37;;;;;;;13.35;10.38;;;16.20;63.60;;;15.21;72.74;95824.75;4990730;28;20058;-67
2023/06/18 03:29:03;;;;;;;13.70;10.48;;;16.20;63.50;;;15.17;71.90;95826.25;4959061;28;20038;-68
2023/06/18 03:31:30;;;;;;;14.93;9.38;;;16.10;63.80;;;15.17;73.13;95822.78;4974397;28;20138;-68
2023/06/18 03:34:01;;;;;;;10.65;9.32;;;16.10;64.20;;;15.13;73.58;95817.09;4974060;28;20533;-67
2023/06/18 03:36:29;;;;;;;13.15;10.18;;;16.10;64.30;;;15.11;74.01;95824.47;4973401;28;20525;-67
2023/06/18 03:38:55;;;;;;;15.27;10.10;;;16.10;64.70;;;15.08;73.39;95822.25;4945269;28;20499;-67
2023/06/18 03:41:22;;;;;;;12.60;9.68;;;16.10;64.70;;;15.06;73.82;95821.69;4963877;28;20061;-67
2023/06/18 03:43:47;;;;;;;11.52;9.93;;;16.10;64.70;;;15.07;73.71;95818.00;5006649;28;20037;-68
2023/06/18 03:46:13;;;;;;;13.10;9.80;;;16.10;64.70;;;15.07;74.20;95807.41;4974484;28;20031;-68
2023/06/18 03:48:41;;;;;;;12.43;10.10;;;16.10;64.80;;;15.05;74.62;95813.97;4961372;28;20109;-68
2023/06/18 03:51:06;;;;;;;12.40;10.07;;;16.10;65.00;;;15.03;74.07;95830.06;4958945;28;20038;-70
2023/06/18 03:53:36;;;;;;;12.43;10.00;;;16.10;65.00;;;15.02;75.13;95836.41;5009357;28;20552;-69
2023/06/18 03:56:03;;;;;;;11.15;9.93;;;16.10;64.80;;;15.00;74.29;95833.97;4992592;28;20026;-67
2023/06/18 03:58:30;;;;;;;15.75;11.05;;;16.10;65.10;;;14.99;75.42;95831.56;5009896;28;20030;-67
2023/06/18 04:00:56;;;;;;;12.75;10.13;;;16.10;65.20;;;15.00;75.78;95835.81;4976726;28;20088;-68
2023/06/18 04:03:22;;;;;;;12.20;9.63;;;16.10;65.20;;;14.99;75.28;95831.56;4991537;28;20441;-68
2023/06/18 04:05:49;;;;;;;13.45;9.95;;;16.10;65.30;;;14.98;75.95;95829.94;5009615;28;20033;-68
2023/06/18 04:08:15;;;;;;;11.27;9.38;;;16.20;65.30;;;15.00;75.28;95833.97;4987382;28;20031;-68
2023/06/18 04:10:41;;;;;;;11.57;10.38;;;16.20;65.40;;;15.02;76.58;95841.72;4940412;28;20109;-67
2023/06/18 04:13:06;;;;;;;12.27;9.32;;;16.20;65.40;;;15.02;75.63;95847.00;4974118;28;20080;-68
2023/06/18 04:15:32;;;;;;;11.95;10.20;;;16.20;65.40;;;15.05;75.97;95851.84;4988520;28;20507;-68
2023/06/18 04:17:58;;;;;;;12.90;9.93;;;16.30;65.20;;;15.10;76.28;95848.53;4959601;28;20037;-67
2023/06/18 04:20:24;;;;;;;13.73;10.00;;;16.30;65.30;;;15.13;76.43;95848.88;4991237;28;20043;-67
2023/06/18 04:22:50;;;;;;;15.88;9.48;;;16.30;65.30;;;15.15;75.55;95852.13;4971775;28;20467;-67
2023/06/18 04:25:15;;;;;;;13.18;10.13;;;16.40;65.30;;;15.17;76.28;95851.94;4973639;28;20053;-68
2023/06/18 04:27:42;;;;;;;16.73;9.88;;;16.40;65.20;;;15.20;75.40;95843.53;4973587;28;20046;-68
2023/06/18 04:30:08;;;;;;;12.10;9.75;;;16.40;64.70;;;15.23;76.24;95846.53;4973334;28;20081;-68
2023/06/18 04:32:34;;;;;;;10.90;9.18;;;16.40;63.90;;;15.27;75.53;95844.25;4988311;28;20027;-67
2023/06/18 04:35:00;;;;;;;12.73;9.80;;;16.50;63.60;;;15.29;74.36;95840.31;4990884;28;20034;-70
2023/06/18 04:37:25;;;;;;;10.63;9.48;;;16.50;63.60;;;15.32;75.06;95847.81;4952608;28;20062;-71
2023/06/18 04:39:51;;;;;;;10.73;9.52;;;16.60;63.20;;;15.35;74.60;95841.25;4955478;28;20456;-69
2023/06/18 04:42:17;;;;;;;11.00;9.13;;;16.60;63.40;;;15.42;74.19;95841.19;4972281;28;20054;-69
2023/06/18 04:44:45;;;;;;;12.10;9.52;;;16.60;63.50;;;15.42;74.95;95846.50;4971055;28;20125;-68
2023/06/18 04:47:11;;;;;;;11.95;9.80;;;16.70;63.40;;;15.49;74.28;95849.84;4973402;28;20049;-68
2023/06/18 04:49:36;;;;;;;14.18;9.95;;;16.70;63.10;;;15.51;73.69;95845.13;4987646;28;20043;-70
2023/06/18 04:52:02;;;;;;;13.60;9.68;;;16.70;62.50;;;15.53;73.69;95838.56;4988903;28;20421;-69
2023/06/18 04:54:28;;;;;;;14.13;9.82;;;16.70;62.10;;;15.55;73.27;95833.84;4971553;28;20538;-70
2023/06/18 04:56:57;;;;;;;13.20;9.40;;;16.80;61.80;;;15.60;73.08;95839.28;4956923;28;20041;-70
2023/06/18 04:59:24;;;;;;;11.98;9.30;;;16.90;61.20;;;15.65;72.05;95841.28;4986732;28;20031;-70
2023/06/18 05:01:50;;;;;;;10.65;9.15;;;17.00;61.50;;;15.70;71.73;95841.41;4972440;28;20022;-68
2023/06/18 05:04:16;;;;;;;11.88;9.80;;;16.90;61.40;;;15.79;72.28;95853.31;4988784;28;20065;-68
2023/06/18 05:06:42;;;;;;;11.98;9.40;;;17.10;62.20;;;15.84;72.43;95845.50;4956787;28;20387;-69
2023/06/18 05:09:08;;;;;;;13.57;9.38;;;17.20;61.50;;;15.88;71.85;95841.34;4985954;28;20067;-70
2023/06/18 05:11:34;;;;;;;13.18;8.82;;;17.30;61.30;;;15.95;71.48;95849.19;4988382;28;20050;-69
2023/06/18 05:14:00;;;;;;;11.75;9.52;;;17.30;60.50;;;15.99;72.34;95847.69;4970924;28;20045;-68
2023/06/18 05:16:27;;;;;;;10.32;8.80;;;17.40;60.80;;;16.09;72.31;95847.16;4971278;28;20545;-69
2023/06/18 05:18:52;;;;;;;11.18;9.15;;;17.50;61.00;;;16.15;72.43;95854.97;4988629;28;20502;-69
2023/06/18 05:21:18;;;;;;;10.05;8.18;;;17.60;61.30;;;16.22;72.17;95860.16;4986080;28;20050;-68
2023/06/18 05:23:44;;;;;;;11.77;8.48;;;17.60;61.50;;;16.26;72.56;95848.06;4956466;28;20027;-68
2023/06/18 05:26:10;;;;;;;12.32;9.38;;;17.70;60.90;;;16.33;72.31;95855.94;4969093;28;20425;-68
2023/06/18 05:28:36;;;;;;;11.90;9.32;;;17.70;60.80;;;16.40;71.48;95854.75;4970724;28;20026;-68
2023/06/18 05:31:02;;;;;;;9.40;8.32;;;17.80;60.80;;;16.44;71.60;95855.91;4969195;28;20122;-68
2023/06/18 05:33:27;;;;;;;11.43;9.10;;;17.80;60.40;;;16.50;71.24;95857.63;4970842;28;20066;-68
2023/06/18 05:35:53;;;;;;;10.98;8.68;;;17.90;60.20;;;16.61;71.14;95860.53;4975496;28;20041;-69
2023/06/18 05:38:19;;;;;;;9.73;8.73;;;18.10;60.50;;;16.67;71.52;95859.63;4990183;28;20054;-66
2023/06/18 05:40:45;;;;;;;11.65;9.00;;;18.10;60.60;;;16.73;70.62;95862.16;4993924;28;20088;-69
2023/06/18 05:43:10;;;;;;;12.90;9.40;;;18.20;59.00;;;16.79;69.88;95863.09;4976922;28;20038;-69
2023/06/18 05:45:37;;;;;;;10.90;8.90;;;18.20;58.70;;;16.84;69.50;95855.22;4968185;28;20034;-70
2023/06/18 05:48:05;;;;;;;15.25;8.88;;;18.30;58.10;;;16.92;69.35;95862.81;4956623;28;20045;-69
2023/06/18 05:50:30;;;;;;;10.85;8.88;;;18.50;58.50;;;17.04;69.72;95865.47;4976504;28;20022;-67
2023/06/18 05:52:58;;;;;;;10.68;8.85;;;18.60;59.00;;;17.13;70.10;95862.19;4976271;28;20084;-67
2023/06/18 05:55:24;;;;;;;11.35;8.88;;;18.70;59.00;;;17.25;69.13;95862.16;4991449;28;20117;-68
2023/06/18 05:57:50;;;;;;;12.73;9.60;;;18.90;58.00;;;17.35;69.63;95866.84;4975750;28;20046;-66
2023/06/18 06:00:16;;;;;;;11.23;9.13;;;19.00;57.60;;;17.45;68.50;95870.53;4960182;28;20089;-71
2023/06/18 06:02:44;;;;;;;12.73;8.95;;;19.10;57.00;;;17.53;68.21;95869.34;4974984;28;20046;-66
2023/06/18 06:05:10;;;;;;;10.45;9.20;;;19.10;57.00;;;17.66;67.38;95871.72;4956835;28;20134;-67
2023/06/18 06:07:36;;;;;;;11.32;9.48;;;19.40;56.20;;;17.78;68.12;95877.00;4974626;28;20030;-66
2023/06/18 06:10:01;;;;;;;11.60;9.27;;;19.50;56.30;;;17.93;68.17;95879.13;4988499;28;20066;-64
2023/06/18 06:12:27;;;;;;;18.25;9.13;;;19.70;56.10;;;18.06;68.08;95884.13;4990335;28;20533;-68
2023/06/18 06:14:53;;;;;;;12.20;8.95;;;19.90;55.80;;;18.19;66.77;95878.50;4974457;28;20115;-70
2023/06/18 06:17:18;;;;;;;12.13;8.88;;;20.10;55.50;;;18.33;67.00;95882.44;4976063;28;20069;-69
2023/06/18 06:19:45;;;;;;;10.52;9.10;;;20.30;54.90;;;18.47;66.59;95879.44;4959575;28;20049;-70
2023/06/18 06:22:11;;;;;;;11.35;8.90;;;20.50;54.90;;;18.58;66.40;95873.22;4975850;28;20034;-69
2023/06/18 06:24:36;;;;;;;10.52;8.38;;;20.60;53.90;;;18.70;66.04;95876.63;4991736;28;20406;-71
2023/06/18 06:27:02;;;;;;;11.05;8.85;;;20.70;53.40;;;18.85;65.84;95878.69;4970711;28;20035;-71
2023/06/18 06:29:28;;;;;;;13.45;8.02;;;21.00;54.00;;;19.01;64.62;95880.50;4991818;28;20125;-69
2023/06/18 06:31:54;;;;;;;10.43;8.40;;;21.10;52.90;;;19.18;64.97;95875.91;4992241;28;20285;-69
2023/06/18 06:34:21;;;;;;;17.20;8.35;;;21.50;51.70;;;19.34;62.96;95876.09;4991375;28;20450;-70
2023/06/18 06:36:47;;;;;;;9.32;8.18;;;21.60;51.30;;;19.50;63.84;95868.03;4959613;28;20404;-69
2023/06/18 06:39:13;;;;;;;10.20;9.13;;;21.80;51.30;;;19.70;62.37;95866.66;4975521;28;20035;-67
2023/06/18 06:41:39;;;;;;;11.00;9.20;;;22.10;50.90;;;19.88;63.19;95864.41;4989867;28;20522;-67
2023/06/18 06:44:04;;;;;;;8.00;7.20;;;22.40;50.80;;;20.05;62.22;95866.16;4992285;28;20194;-70
2023/06/18 06:46:30;;;;;;;9.60;7.57;;;22.60;49.70;;;20.26;61.80;95873.28;4974617;28;20026;-71
2023/06/18 06:48:56;;;;;;;11.70;8.50;;;22.80;48.70;;;20.44;60.05;95872.94;4959032;28;20451;-68
2023/06/18 06:51:22;;;;;;;12.10;9.88;;;22.90;47.80;;;20.62;60.19;95869.06;4974086;28;20030;-68
2023/06/18 06:53:47;;;;;;;9.73;7.50;;;23.10;48.30;;;20.83;59.99;95871.84;4992302;28;20132;-70
2023/06/18 06:56:13;;;;;;;8.88;7.07;;;23.40;47.70;;;20.96;57.85;95869.50;4990618;28;20038;-70
2023/06/18 06:58:39;;;;;;;8.93;7.45;;;23.50;45.20;;;21.09;57.27;95857.53;4974960;28;20126;-70
2023/06/18 07:01:05;;;;;;;12.07;7.80;;;23.50;45.00;;;21.20;56.39;95853.81;4992831;28;20077;-71
2023/06/18 07:03:31;;;;;;;12.07;10.75;;;23.80;45.00;;;21.36;56.22;95854.72;4970638;28;20046;-70
2023/06/18 07:05:56;;;;;;;16.98;12.65;;;24.00;45.30;;;21.53;56.06;95854.50;4975783;28;20116;-70
2023/06/18 07:08:22;;;;;;;9.73;7.75;;;24.20;44.90;;;21.70;55.36;95853.19;4958699;28;20038;-71
2023/06/18 07:10:48;;;;;;;11.63;8.00;;;24.30;44.20;;;21.84;54.26;95860.72;4942140;28;20027;-71
2023/06/18 07:13:14;;;;;;;9.90;7.30;;;24.50;43.50;;;22.00;54.37;95857.81;4955836;28;20114;-71
2023/06/18 07:15:40;;;;;;;9.50;7.68;;;24.70;43.30;;;22.19;54.12;95860.78;4988246;28;20455;-70
2023/06/18 07:18:05;;;;;;;11.45;7.45;;;25.00;43.40;;;22.36;53.22;95860.50;4991879;28;20038;-70
2023/06/18 07:20:31;;;;;;;15.38;7.30;;;25.20;42.40;;;22.58;51.66;95852.97;4975090;28;20410;-70
2023/06/18 07:22:57;;;;;;;9.30;7.40;;;25.50;40.90;;;22.74;51.31;95851.06;4991158;28;20551;-71
2023/06/18 07:25:22;;;;;;;8.30;7.40;;;25.60;41.50;;;22.88;52.07;95862.09;4974807;28;20510;-71
2023/06/18 07:27:48;;;;;;;11.88;7.03;;;25.60;42.10;;;23.02;52.12;95855.06;4992169;28;20034;-70
2023/06/18 07:30:14;;;;;;;9.45;7.10;;;25.90;42.50;;;23.21;50.71;95850.69;4990574;28;20121;-70
2023/06/18 07:32:40;;;;;;;10.88;7.93;;;26.10;40.70;;;23.37;49.64;95847.94;4973193;28;20027;-71
2023/06/18 07:35:07;;;;;;;13.13;9.45;;;26.30;39.60;;;23.55;49.82;95847.31;4969259;28;20026;-71
2023/06/18 07:37:32;;;;;;;8.60;7.50;;;26.50;40.00;;;23.72;48.35;95844.28;4958496;28;20034;-71
2023/06/18 07:39:58;;;;;;;7.53;6.60;;;26.60;38.00;;;23.88;48.29;95834.25;4974065;28;20050;-70
2023/06/18 07:42:24;;;;;;;8.05;6.38;;;26.80;38.30;;;24.05;48.16;95838.16;4973176;28;20054;-70
2023/06/18 07:44:51;;;;;;;6.72;5.93;;;27.00;39.50;;;24.23;47.21;95839.38;4973063;28;20046;-70
2023/06/18 07:47:17;;;;;;;8.10;6.47;;;27.10;38.00;;;24.39;46.08;95827.41;4990965;28;20037;-71
2023/06/18 07:49:43;;;;;;;7.18;6.40;;;27.30;37.30;;;24.58;46.86;95832.06;4989758;28;20043;-71
2023/06/18 07:52:08;;;;;;;8.68;6.22;;;27.60;38.70;;;24.76;46.24;95823.28;4991377;28;20058;-70
2023/06/18 07:54:35;;;;;;;6.10;5.50;;;27.80;36.70;;;24.90;45.10;95821.53;4990151;28;20034;-71
2023/06/18 07:57:01;;;;;;;6.88;6.13;;;27.80;35.70;;;25.08;44.22;95827.25;4990194;28;20510;-71
2023/06/18 07:59:27;;;;;;;7.13;5.95;;;28.10;35.90;;;25.22;43.87;95820.91;4973564;28;20065;-72
2023/06/18 08:01:53;;;;;;;8.73;6.43;;;28.20;36.00;;;25.41;44.23;95825.53;4941572;28;20030;-71
2023/06/18 08:04:19;;;;;;;8.25;6.40;;;28.50;36.10;;;25.58;44.74;95825.81;4990177;28;20034;-71
2023/06/18 08:06:48;;;;;;;7.43;6.15;;;28.60;37.50;;;25.79;45.00;95826.34;4972276;28;20549;-71
2023/06/18 08:09:14;;;;;;;7.38;6.35;;;28.90;37.00;;;25.99;44.67;95823.34;4991683;28;20414;-72
2023/06/18 08:11:41;;;;;;;9.98;6.18;;;29.10;37.20;;;26.19;45.31;95825.72;4973695;28;20030;-72
2023/06/18 08:14:07;;;;;;;7.32;6.10;;;29.30;38.00;;;26.41;44.29;95824.31;4973613;28;20676;-71
2023/06/18 08:16:33;;;;;;;7.82;5.72;;;29.50;34.80;;;26.59;43.20;95817.25;4973962;28;20031;-71
2023/06/18 08:18:58;;;;;;;7.80;6.07;;;29.70;34.60;;;26.77;42.31;95813.69;4954981;28;20063;-72
2023/06/18 08:21:24;;;;;;;8.10;5.97;;;30.00;33.20;;;26.94;41.03;95808.50;4973808;28;20117;-71
2023/06/18 08:23:50;;;;;;;8.48;6.38;;;30.00;32.30;;;27.06;40.17;95805.34;4970483;28;20050;-70
2023/06/18 08:26:19;;;;;;;10.45;7.07;;;30.10;31.90;;;27.19;39.41;95793.72;4989996;28;20026;-71
2023/06/18 08:28:45;;;;;;;8.10;5.70;;;30.20;31.40;;;27.37;38.97;95794.69;4973586;28;20038;-71
2023/06/18 08:31:10;;;;;;;16.23;5.47;;;30.50;32.40;;;27.61;40.25;95805.22;4973735;28;20088;-71
2023/06/18 08:33:36;;;;;;;10.50;5.10;;;30.80;33.30;;;27.81;39.04;95799.41;4988232;28;20062;-71
2023/06/18 08:36:02;;;;;;;11.20;5.60;;;31.00;32.10;;;28.00;39.60;95800.03;4972980;28;20094;-71
2023/06/18 08:38:28;;;;;;;7.50;5.50;;;31.40;32.30;;;28.25;39.39;95798.63;4945936;28;20089;-72
2023/06/18 08:41:02;;;;;;;6.25;5.55;;;31.70;31.60;;;28.45;38.22;95797.31;4987119;28;20034;-72
2023/06/18 08:43:32;;;;;;;9.88;6.00;;;31.80;30.90;;;28.68;37.36;95785.34;4994229;28;20525;-72
2023/06/18 08:46:16;;;;;;;13.65;8.18;;;32.10;29.00;;;28.89;34.75;95766.66;4973521;28;20026;-71
2023/06/18 08:48:59;;;;;;;14.23;6.18;;;32.30;29.10;;;29.12;34.80;95764.66;4973133;28;20096;-72
2023/06/18 08:51:25;;;;;;;8.45;6.07;;;32.50;29.00;;;29.35;36.28;95780.81;4941937;28;20065;-72
2023/06/18 08:54:13;;;;;;;6.95;5.47;;;32.70;30.50;;;29.64;35.31;95772.09;4956442;28;20107;-71
2023/06/18 08:56:51;;;;;;;6.30;5.00;;;32.90;29.70;;;29.89;34.31;95757.75;4971805;28;20053;-72
2023/06/18 08:59:18;;;;;;;6.38;5.18;;;33.30;28.50;;;30.10;35.06;95775.00;4968838;28;20069;-72
2023/06/18 09:01:44;;;;;;;6.93;5.00;;;33.50;28.60;;;30.31;34.06;95774.28;4972966;28;20593;-72
2023/06/18 09:04:10;;;;;;;16.77;15.07;;;33.60;26.10;;;30.51;33.92;95761.94;4972320;28;20073;-71
2023/06/18 09:06:36;;;;;;;8.75;6.93;;;33.70;26.30;;;30.70;33.47;95759.69;4939181;28;20043;-72
2023/06/18 09:09:02;;;;;;;5.75;5.07;;;34.00;25.90;;;30.91;32.05;95754.31;4971647;28;20073;-71
2023/06/18 09:11:29;;;;;;;9.10;4.70;;;34.10;25.10;;;31.08;31.82;95755.03;4987302;28;20043;-72
2023/06/18 09:13:54;;;;;;;6.75;4.65;;;34.40;25.20;;;31.29;31.84;95757.81;4972402;28;20048;-71
2023/06/18 09:16:21;;;;;;;5.80;4.35;;;34.60;26.70;;;31.54;31.75;95758.75;4973088;28;20027;-71
2023/06/18 09:18:47;;;;;;;5.63;4.35;;;34.80;26.00;;;31.75;31.57;95760.72;4988665;28;20673;-72
2023/06/18 09:21:34;;;;;;;5.55;4.10;;;35.00;25.60;;;31.99;29.17;95728.97;4957216;28;20038;-72
2023/06/18 09:24:00;;;;;;;6.38;4.28;;;35.10;25.30;;;32.19;30.83;95749.09;4972242;28;20046;-71
2023/06/18 09:26:26;;;;;;;6.18;4.72;;;35.40;24.60;;;32.38;30.29;95742.38;4989185;28;20085;-71
2023/06/18 09:28:54;;;;;;;7.75;4.35;;;35.60;24.50;;;32.57;30.48;95745.34;4972605;28;20030;-72
2023/06/18 09:31:26;;;;;;;6.82;5.07;;;35.80;23.30;;;32.74;27.34;95712.44;4973394;28;20031;-72
2023/06/18 09:33:52;;;;;;;5.13;4.60;;;36.00;22.50;;;32.87;29.00;95735.88;4987931;28;20026;-71
2023/06/18 09:36:18;;;;;;;7.30;4.55;;;36.10;22.90;;;33.02;28.19;95731.66;4972910;28;20420;-71
2023/06/18 09:38:43;;;;;;;8.25;4.38;;;36.30;22.60;;;33.13;28.45;95727.34;4954903;28;20537;-72
2023/06/18 09:41:19;;;;;;;10.70;4.75;;;36.50;22.10;;;33.34;27.22;95712.81;4988889;28;20039;-72
2023/06/18 09:43:47;;;;;;;5.80;4.50;;;36.80;23.10;;;33.48;27.81;95722.19;4988543;28;20603;-72
2023/06/18 09:46:14;;;;;;;9.20;6.70;;;36.80;20.80;;;33.66;27.40;95735.56;4969277;28;20035;-70
2023/06/18 09:48:43;;;;;;;38.50;16.13;;;37.00;22.80;;;33.89;27.39;95735.84;4972131;28;20277;-70
2023/06/18 09:51:09;;;;;;;16.55;10.10;;;37.30;23.30;;;34.06;27.71;95732.81;4940845;28;20054;-70
2023/06/18 09:53:35;;;;;;;11.18;5.05;;;37.50;22.60;;;34.13;27.82;95730.28;4952878;28;20109;-72
2023/06/18 09:56:16;;;;;;;12.02;6.88;;;37.60;22.60;;;34.34;26.41;95708.19;4955043;28;20109;-71
2023/06/18 09:58:49;;;;;;;24.27;14.38;;;37.80;22.00;;;34.49;25.43;95704.72;4970693;28;20035;-73
2023/06/18 10:01:16;;;;;;;7.90;5.20;;;38.10;21.00;;;34.61;26.71;95723.75;4944700;28;20680;-73
2023/06/18 10:03:42;;;;;;;6.70;5.97;;;38.50;20.50;;;34.81;26.32;95721.09;4952863;28;20030;-73
2023/06/18 10:06:21;;;;;;;8.18;6.28;;;38.70;20.20;;;35.03;25.51;95708.75;4987926;28;20031;-72
2023/06/18 10:08:52;;;;;;;7.82;6.53;;;39.00;21.10;;;35.31;25.82;95728.56;4970860;28;20058;-72
2023/06/18 10:11:18;;;;;;;5.38;4.50;;;39.50;21.60;;;35.59;26.64;95742.09;4967301;28;20054;-73
2023/06/18 10:13:55;;;;;;;7.28;4.57;;;39.70;21.00;;;35.78;24.54;95703.78;4954430;28;20043;-73